sensor_id;sensor_type;location;lat;lon;timestamp;P1;durP1;ratioP1;P2;durP2;ratioP2
32242;SDS011;18731;42.830;24.390;2023-03-14T04:02:16;4.30;;;2.30;;
32242;SDS011;18731;42.830;24.390;2023-03-14T04:04:42;4.22;;;2.60;;
32242;SDS011;18731;42.830;24.390;2023-03-14T04:07:07;5.55;;;2.70;;
32242;SDS011;18731;42.830;24.390;2023-03-14T04:09:34;5.93;;;2.70;;
32242;SDS011;18731;42.830;24.390;2023-03-14T04:12:00;4.30;;;2.70;;
32242;SDS011;18731;42.830;24.390;2023-03-14T04:14:25;3.53;;;2.03;;
32242;SDS011;18731;42.830;24.390;2023-03-14T04:16:51;3.65;;;1.92;;
32242;SDS011;18731;42.830;24.390;2023-03-14T04:19:17;4.97;;;2.47;;
32242;SDS011;18731;42.830;24.390;2023-03-14T04:21:42;7.28;;;3.30;;
32242;SDS011;18731;42.830;24.390;2023-03-14T04:24:12;9.73;;;4.70;;
32242;SDS011;18731;42.830;24.390;2023-03-14T04:26:38;9.95;;;5.28;;
32242;SDS011;18731;42.830;24.390;2023-03-14T04:29:04;10.02;;;5.32;;
32242;SDS011;18731;42.830;24.390;2023-03-14T04:31:29;8.48;;;5.40;;
32242;SDS011;18731;42.830;24.390;2023-03-14T04:33:55;7.72;;;5.40;;
32242;SDS011;18731;42.830;24.390;2023-03-14T04:36:21;6.28;;;3.72;;
32242;SDS011;18731;42.830;24.390;2023-03-14T04:38:46;15.85;;;6.47;;
32242;SDS011;18731;42.830;24.390;2023-03-14T04:41:12;22.98;;;10.30;;
32242;SDS011;18731;42.830;24.390;2023-03-14T04:43:38;22.35;;;11.65;;
32242;SDS011;18731;42.830;24.390;2023-03-14T04:46:04;19.58;;;9.88;;
32242;SDS011;18731;42.830;24.390;2023-03-14T04:48:29;9.52;;;5.32;;
32242;SDS011;18731;42.830;24.390;2023-03-14T04:50:55;13.57;;;5.18;;
32242;SDS011;18731;42.830;24.390;2023-03-14T04:53:21;17.30;;;7.95;;
32242;SDS011;18731;42.830;24.390;2023-03-14T04:55:54;16.60;;;6.75;;
32242;SDS011;18731;42.830;24.390;2023-03-14T04:58:21;14.00;;;6.55;;
32242;SDS011;18731;42.830;24.390;2023-03-14T05:00:47;18.98;;;9.23;;
32242;SDS011;18731;42.830;24.390;2023-03-14T05:03:14;13.15;;;6.65;;
32242;SDS011;18731;42.830;24.390;2023-03-14T05:05:41;15.73;;;7.65;;
32242;SDS011;18731;42.830;24.390;2023-03-14T05:08:06;28.75;;;14.48;;
32242;SDS011;18731;42.830;24.390;2023-03-14T05:10:32;41.05;;;18.92;;
32242;SDS011;18731;42.830;24.390;2023-03-14T05:12:58;49.95;;;22.02;;
32242;SDS011;18731;42.830;24.390;2023-03-14T05:15:23;41.45;;;17.80;;
32242;SDS011;18731;42.830;24.390;2023-03-14T05:17:49;22.05;;;10.77;;
32242;SDS011;18731;42.830;24.390;2023-03-14T05:20:15;20.52;;;10.52;;
32242;SDS011;18731;42.830;24.390;2023-03-14T05:22:41;18.80;;;9.80;;
32242;SDS011;18731;42.830;24.390;2023-03-14T05:25:08;20.75;;;7.40;;
32242;SDS011;18731;42.830;24.390;2023-03-14T05:27:34;14.93;;;7.22;;
32242;SDS011;18731;42.830;24.390;2023-03-14T05:30:00;17.55;;;7.78;;
32242;SDS011;18731;42.830;24.390;2023-03-14T05:32:27;12.75;;;6.35;;
32242;SDS011;18731;42.830;24.390;2023-03-14T05:34:53;25.33;;;8.75;;
32242;SDS011;18731;42.830;24.390;2023-03-14T05:37:23;19.55;;;11.32;;
32242;SDS011;18731;42.830;24.390;2023-03-14T05:39:49;20.75;;;11.45;;
32242;SDS011;18731;42.830;24.390;2023-03-14T05:42:14;26.05;;;13.20;;
32242;SDS011;18731;42.830;24.390;2023-03-14T05:44:40;24.70;;;13.23;;
32242;SDS011;18731;42.830;24.390;2023-03-14T05:47:06;17.98;;;7.60;;
32242;SDS011;18731;42.830;24.390;2023-03-14T05:49:31;10.38;;;5.30;;
32242;SDS011;18731;42.830;24.390;2023-03-14T05:51:57;37.45;;;14.15;;
32242;SDS011;18731;42.830;24.390;2023-03-14T05:54:23;57.35;;;19.48;;
32242;SDS011;18731;42.830;24.390;2023-03-14T05:56:48;21.10;;;9.32;;
32242;SDS011;18731;42.830;24.390;2023-03-14T05:59:14;15.55;;;6.32;;
32242;SDS011;18731;42.830;24.390;2023-03-14T06:01:40;63.22;;;16.95;;
32242;SDS011;18731;42.830;24.390;2023-03-14T06:04:05;94.30;;;26.75;;
32242;SDS011;18731;42.830;24.390;2023-03-14T06:06:31;41.20;;;12.18;;
32242;SDS011;18731;42.830;24.390;2023-03-14T06:08:57;47.10;;;14.25;;
32242;SDS011;18731;42.830;24.390;2023-03-14T06:11:22;9.77;;;3.65;;
32242;SDS011;18731;42.830;24.390;2023-03-14T06:13:48;4.43;;;2.60;;
32242;SDS011;18731;42.830;24.390;2023-03-14T06:16:14;8.02;;;3.15;;
32242;SDS011;18731;42.830;24.390;2023-03-14T06:18:40;10.30;;;4.63;;
32242;SDS011;18731;42.830;24.390;2023-03-14T06:21:05;17.35;;;10.50;;
32242;SDS011;18731;42.830;24.390;2023-03-14T06:23:32;7.32;;;4.50;;
32242;SDS011;18731;42.830;24.390;2023-03-14T06:25:57;5.43;;;3.00;;
32242;SDS011;18731;42.830;24.390;2023-03-14T06:28:23;4.22;;;3.20;;
32242;SDS011;18731;42.830;24.390;2023-03-14T06:30:49;7.68;;;1.55;;
32242;SDS011;18731;42.830;24.390;2023-03-14T06:33:14;1.92;;;1.20;;
32242;SDS011;18731;42.830;24.390;2023-03-14T06:35:40;6.30;;;1.63;;
32242;SDS011;18731;42.830;24.390;2023-03-14T06:38:06;3.17;;;1.85;;
32242;SDS011;18731;42.830;24.390;2023-03-14T06:40:31;3.25;;;1.27;;
32242;SDS011;18731;42.830;24.390;2023-03-14T06:42:57;2.45;;;1.48;;
32242;SDS011;18731;42.830;24.390;2023-03-14T06:45:22;2.80;;;1.38;;
32242;SDS011;18731;42.830;24.390;2023-03-14T06:47:48;2.83;;;1.27;;
32242;SDS011;18731;42.830;24.390;2023-03-14T06:50:14;2.42;;;1.38;;
32242;SDS011;18731;42.830;24.390;2023-03-14T06:52:40;3.30;;;1.50;;
32242;SDS011;18731;42.830;24.390;2023-03-14T06:55:13;4.65;;;3.15;;
32242;SDS011;18731;42.830;24.390;2023-03-14T06:57:39;5.47;;;4.53;;
32242;SDS011;18731;42.830;24.390;2023-03-14T07:00:05;3.03;;;2.63;;
32242;SDS011;18731;42.830;24.390;2023-03-14T07:02:32;4.28;;;2.65;;
32242;SDS011;18731;42.830;24.390;2023-03-14T07:04:57;3.80;;;1.98;;
32242;SDS011;18731;42.830;24.390;2023-03-14T07:07:23;2.67;;;1.83;;
32242;SDS011;18731;42.830;24.390;2023-03-14T07:09:49;2.42;;;1.60;;
32242;SDS011;18731;42.830;24.390;2023-03-14T07:12:14;5.03;;;2.55;;
32242;SDS011;18731;42.830;24.390;2023-03-14T07:14:40;7.60;;;3.28;;
32242;SDS011;18731;42.830;24.390;2023-03-14T07:17:05;8.25;;;3.55;;
32242;SDS011;18731;42.830;24.390;2023-03-14T07:19:31;6.05;;;3.13;;
32242;SDS011;18731;42.830;24.390;2023-03-14T07:21:56;4.47;;;2.65;;
32242;SDS011;18731;42.830;24.390;2023-03-14T07:24:22;5.30;;;2.90;;
32242;SDS011;18731;42.830;24.390;2023-03-14T07:26:48;5.55;;;3.80;;
32242;SDS011;18731;42.830;24.390;2023-03-14T07:29:14;8.85;;;4.78;;
32242;SDS011;18731;42.830;24.390;2023-03-14T07:31:39;10.07;;;4.97;;
32242;SDS011;18731;42.830;24.390;2023-03-14T07:34:07;8.90;;;5.25;;
32242;SDS011;18731;42.830;24.390;2023-03-14T07:36:32;11.98;;;7.40;;
32242;SDS011;18731;42.830;24.390;2023-03-14T07:38:58;13.05;;;8.27;;
32242;SDS011;18731;42.830;24.390;2023-03-14T07:41:24;8.15;;;5.47;;
32242;SDS011;18731;42.830;24.390;2023-03-14T07:43:50;7.40;;;5.18;;
32242;SDS011;18731;42.830;24.390;2023-03-14T07:46:15;8.32;;;5.40;;
32242;SDS011;18731;42.830;24.390;2023-03-14T07:48:42;7.35;;;4.50;;
32242;SDS011;18731;42.830;24.390;2023-03-14T07:51:08;3.42;;;2.53;;
32242;SDS011;18731;42.830;24.390;2023-03-14T07:53:34;9.27;;;3.17;;
32242;SDS011;18731;42.830;24.390;2023-03-14T07:55:59;6.10;;;3.65;;
32242;SDS011;18731;42.830;24.390;2023-03-14T07:58:25;5.95;;;3.92;;
32242;SDS011;18731;42.830;24.390;2023-03-14T08:00:51;5.30;;;3.30;;
32242;SDS011;18731;42.830;24.390;2023-03-14T08:03:18;4.25;;;3.13;;
32242;SDS011;18731;42.830;24.390;2023-03-14T08:05:47;6.10;;;3.38;;
32242;SDS011;18731;42.830;24.390;2023-03-14T08:08:14;4.53;;;2.60;;
32242;SDS011;18731;42.830;24.390;2023-03-14T08:10:39;6.80;;;3.42;;
32242;SDS011;18731;42.830;24.390;2023-03-14T08:13:05;3.00;;;2.08;;
32242;SDS011;18731;42.830;24.390;2023-03-14T08:15:31;3.90;;;2.00;;
32242;SDS011;18731;42.830;24.390;2023-03-14T08:17:57;3.75;;;2.30;;
32242;SDS011;18731;42.830;24.390;2023-03-14T08:20:24;3.55;;;1.92;;
32242;SDS011;18731;42.830;24.390;2023-03-14T08:22:51;3.15;;;1.70;;
32242;SDS011;18731;42.830;24.390;2023-03-14T08:25:17;3.72;;;1.70;;
32242;SDS011;18731;42.830;24.390;2023-03-14T08:27:43;1.58;;;1.35;;
32242;SDS011;18731;42.830;24.390;2023-03-14T08:30:09;1.60;;;1.23;;
32242;SDS011;18731;42.830;24.390;2023-03-14T08:32:37;1.58;;;1.33;;
32242;SDS011;18731;42.830;24.390;2023-03-14T08:35:03;3.13;;;1.48;;
32242;SDS011;18731;42.830;24.390;2023-03-14T08:37:31;2.13;;;1.08;;
32242;SDS011;18731;42.830;24.390;2023-03-14T08:39:57;4.20;;;2.00;;
32242;SDS011;18731;42.830;24.390;2023-03-14T08:42:23;3.13;;;1.58;;
32242;SDS011;18731;42.830;24.390;2023-03-14T08:44:50;3.00;;;1.90;;
32242;SDS011;18731;42.830;24.390;2023-03-14T08:47:16;2.10;;;1.60;;
32242;SDS011;18731;42.830;24.390;2023-03-14T08:49:42;1.88;;;1.30;;
32242;SDS011;18731;42.830;24.390;2023-03-14T08:52:07;2.65;;;1.10;;
32242;SDS011;18731;42.830;24.390;2023-03-14T08:54:34;2.85;;;0.90;;
32242;SDS011;18731;42.830;24.390;2023-03-14T08:57:00;1.38;;;0.80;;
32242;SDS011;18731;42.830;24.390;2023-03-14T08:59:25;5.00;;;1.05;;
32242;SDS011;18731;42.830;24.390;2023-03-14T09:01:51;5.28;;;1.10;;
32242;SDS011;18731;42.830;24.390;2023-03-14T09:04:18;1.88;;;1.50;;
32242;SDS011;18731;42.830;24.390;2023-03-14T09:06:44;1.73;;;1.10;;
32242;SDS011;18731;42.830;24.390;2023-03-14T09:09:09;1.35;;;0.90;;
32242;SDS011;18731;42.830;24.390;2023-03-14T09:11:35;2.15;;;1.15;;
32242;SDS011;18731;42.830;24.390;2023-03-14T09:14:01;5.70;;;2.80;;
32242;SDS011;18731;42.830;24.390;2023-03-14T09:16:26;5.43;;;2.90;;
32242;SDS011;18731;42.830;24.390;2023-03-14T09:18:52;3.90;;;2.20;;
32242;SDS011;18731;42.830;24.390;2023-03-14T09:21:25;2.28;;;1.67;;
32242;SDS011;18731;42.830;24.390;2023-03-14T09:23:52;1.70;;;1.17;;
32242;SDS011;18731;42.830;24.390;2023-03-14T09:26:19;1.95;;;1.23;;
32242;SDS011;18731;42.830;24.390;2023-03-14T09:28:44;2.00;;;1.00;;
32242;SDS011;18731;42.830;24.390;2023-03-14T09:31:11;1.75;;;1.10;;
32242;SDS011;18731;42.830;24.390;2023-03-14T09:33:37;1.23;;;1.02;;
32242;SDS011;18731;42.830;24.390;2023-03-14T09:36:03;0.60;;;0.60;;
32242;SDS011;18731;42.830;24.390;2023-03-14T09:38:30;0.47;;;0.45;;
32242;SDS011;18731;42.830;24.390;2023-03-14T09:40:58;0.60;;;0.55;;
32242;SDS011;18731;42.830;24.390;2023-03-14T09:43:26;0.63;;;0.60;;
32242;SDS011;18731;42.830;24.390;2023-03-14T09:45:55;1.92;;;0.57;;
32242;SDS011;18731;42.830;24.390;2023-03-14T09:48:27;0.50;;;0.50;;
32242;SDS011;18731;42.830;24.390;2023-03-14T09:50:56;1.15;;;0.63;;
32242;SDS011;18731;42.830;24.390;2023-03-14T09:53:37;1.20;;;0.70;;
32242;SDS011;18731;42.830;24.390;2023-03-14T09:56:39;1.63;;;0.75;;
32242;SDS011;18731;42.830;24.390;2023-03-14T09:59:00;1.55;;;0.98;;
32242;SDS011;18731;42.830;24.390;2023-03-14T10:01:29;1.15;;;0.90;;
32242;SDS011;18731;42.830;24.390;2023-03-14T10:03:58;0.70;;;0.68;;
32242;SDS011;18731;42.830;24.390;2023-03-14T10:06:29;0.85;;;0.73;;
32242;SDS011;18731;42.830;24.390;2023-03-14T10:08:56;0.77;;;0.70;;
32242;SDS011;18731;42.830;24.390;2023-03-14T10:11:22;2.60;;;0.93;;
32242;SDS011;18731;42.830;24.390;2023-03-14T10:14:03;1.30;;;0.47;;
32242;SDS011;18731;42.830;24.390;2023-03-14T10:16:34;1.00;;;0.90;;
32242;SDS011;18731;42.830;24.390;2023-03-14T10:19:05;2.45;;;0.80;;
32242;SDS011;18731;42.830;24.390;2023-03-14T10:21:44;1.20;;;0.65;;
32242;SDS011;18731;42.830;24.390;2023-03-14T10:24:21;0.75;;;0.50;;
32242;SDS011;18731;42.830;24.390;2023-03-14T10:26:54;4.40;;;0.65;;
32242;SDS011;18731;42.830;24.390;2023-03-14T10:29:23;3.10;;;0.80;;
32242;SDS011;18731;42.830;24.390;2023-03-14T10:32:02;2.53;;;0.93;;
32242;SDS011;18731;42.830;24.390;2023-03-14T10:34:31;1.27;;;0.90;;
32242;SDS011;18731;42.830;24.390;2023-03-14T10:37:05;0.85;;;0.80;;
32242;SDS011;18731;42.830;24.390;2023-03-14T10:42:12;0.70;;;0.70;;
32242;SDS011;18731;42.830;24.390;2023-03-14T10:44:39;1.27;;;0.77;;
32242;SDS011;18731;42.830;24.390;2023-03-14T10:47:12;2.38;;;1.30;;
32242;SDS011;18731;42.830;24.390;2023-03-14T10:49:43;3.20;;;1.85;;
32242;SDS011;18731;42.830;24.390;2023-03-14T10:52:13;1.73;;;1.50;;
32242;SDS011;18731;42.830;24.390;2023-03-14T10:55:03;1.50;;;1.00;;
32242;SDS011;18731;42.830;24.390;2023-03-14T10:57:39;1.70;;;1.05;;
32242;SDS011;18731;42.830;24.390;2023-03-14T11:00:06;3.75;;;1.17;;
32242;SDS011;18731;42.830;24.390;2023-03-14T11:05:12;1.38;;;1.17;;
32242;SDS011;18731;42.830;24.390;2023-03-14T11:07:42;4.15;;;1.70;;
32242;SDS011;18731;42.830;24.390;2023-03-14T11:15:56;2.63;;;2.33;;
32242;SDS011;18731;42.830;24.390;2023-03-14T11:24:17;2.58;;;1.60;;
32242;SDS011;18731;42.830;24.390;2023-03-14T11:32:41;5.60;;;1.90;;
32242;SDS011;18731;42.830;24.390;2023-03-14T11:37:52;3.65;;;1.80;;
32242;SDS011;18731;42.830;24.390;2023-03-14T11:40:26;2.00;;;1.70;;
32242;SDS011;18731;42.830;24.390;2023-03-14T11:43:15;8.40;;;5.22;;
32242;SDS011;18731;42.830;24.390;2023-03-14T11:46:10;2.35;;;1.63;;
32242;SDS011;18731;42.830;24.390;2023-03-14T11:54:04;2.10;;;1.80;;
32242;SDS011;18731;42.830;24.390;2023-03-14T11:59:27;1.60;;;1.50;;
32242;SDS011;18731;42.830;24.390;2023-03-14T12:02:25;3.42;;;1.80;;
32242;SDS011;18731;42.830;24.390;2023-03-14T12:08:34;3.80;;;1.77;;
32242;SDS011;18731;42.830;24.390;2023-03-14T12:11:19;3.35;;;2.17;;
32242;SDS011;18731;42.830;24.390;2023-03-14T12:14:15;2.50;;;1.70;;
32242;SDS011;18731;42.830;24.390;2023-03-14T12:16:55;3.25;;;1.83;;
32242;SDS011;18731;42.830;24.390;2023-03-14T12:19:25;4.00;;;1.75;;
32242;SDS011;18731;42.830;24.390;2023-03-14T12:24:34;3.40;;;2.05;;
32242;SDS011;18731;42.830;24.390;2023-03-14T12:27:03;2.97;;;1.70;;
32242;SDS011;18731;42.830;24.390;2023-03-14T12:29:30;2.00;;;1.50;;
32242;SDS011;18731;42.830;24.390;2023-03-14T12:34:33;2.45;;;1.88;;
32242;SDS011;18731;42.830;24.390;2023-03-14T12:40:06;4.95;;;1.80;;
32242;SDS011;18731;42.830;24.390;2023-03-14T12:43:00;1.83;;;1.50;;
32242;SDS011;18731;42.830;24.390;2023-03-14T12:45:34;2.78;;;1.90;;
32242;SDS011;18731;42.830;24.390;2023-03-14T12:51:00;3.20;;;2.10;;
32242;SDS011;18731;42.830;24.390;2023-03-14T12:56:23;3.45;;;1.90;;
32242;SDS011;18731;42.830;24.390;2023-03-14T13:01:46;2.03;;;1.60;;
32242;SDS011;18731;42.830;24.390;2023-03-14T13:04:18;9.27;;;4.40;;
32242;SDS011;18731;42.830;24.390;2023-03-14T13:06:52;2.67;;;1.90;;
32242;SDS011;18731;42.830;24.390;2023-03-14T13:12:13;2.92;;;2.28;;
32242;SDS011;18731;42.830;24.390;2023-03-14T13:14:45;1.35;;;1.25;;
32242;SDS011;18731;42.830;24.390;2023-03-14T13:17:14;1.60;;;1.13;;
32242;SDS011;18731;42.830;24.390;2023-03-14T13:19:52;2.53;;;1.55;;
32242;SDS011;18731;42.830;24.390;2023-03-14T13:22:26;5.50;;;1.80;;
32242;SDS011;18731;42.830;24.390;2023-03-14T13:25:26;2.30;;;1.60;;
32242;SDS011;18731;42.830;24.390;2023-03-14T13:27:47;2.83;;;1.55;;
32242;SDS011;18731;42.830;24.390;2023-03-14T13:30:19;3.00;;;2.67;;
32242;SDS011;18731;42.830;24.390;2023-03-14T13:32:48;2.10;;;1.35;;
32242;SDS011;18731;42.830;24.390;2023-03-14T13:35:16;9.45;;;6.22;;
32242;SDS011;18731;42.830;24.390;2023-03-14T13:37:51;8.32;;;4.88;;
32242;SDS011;18731;42.830;24.390;2023-03-14T13:40:23;9.00;;;4.65;;
32242;SDS011;18731;42.830;24.390;2023-03-14T13:48:26;2.13;;;1.55;;
32242;SDS011;18731;42.830;24.390;2023-03-14T13:51:04;3.65;;;2.15;;
32242;SDS011;18731;42.830;24.390;2023-03-14T13:53:33;1.58;;;1.30;;
32242;SDS011;18731;42.830;24.390;2023-03-14T13:56:18;5.00;;;2.40;;
32242;SDS011;18731;42.830;24.390;2023-03-14T13:58:45;1.65;;;1.30;;
32242;SDS011;18731;42.830;24.390;2023-03-14T14:06:27;6.43;;;2.55;;
32242;SDS011;18731;42.830;24.390;2023-03-14T14:08:57;2.47;;;1.90;;
32242;SDS011;18731;42.830;24.390;2023-03-14T14:17:09;9.90;;;1.90;;
32242;SDS011;18731;42.830;24.390;2023-03-14T14:19:38;3.40;;;1.85;;
32242;SDS011;18731;42.830;24.390;2023-03-14T14:22:05;2.90;;;2.00;;
32242;SDS011;18731;42.830;24.390;2023-03-14T14:24:33;4.25;;;2.30;;
32242;SDS011;18731;42.830;24.390;2023-03-14T14:27:13;8.43;;;2.88;;
32242;SDS011;18731;42.830;24.390;2023-03-14T14:30:04;6.97;;;2.00;;
32242;SDS011;18731;42.830;24.390;2023-03-14T14:32:43;7.07;;;3.20;;
32242;SDS011;18731;42.830;24.390;2023-03-14T14:35:22;5.70;;;3.40;;
32242;SDS011;18731;42.830;24.390;2023-03-14T14:37:57;6.47;;;3.47;;
32242;SDS011;18731;42.830;24.390;2023-03-14T14:40:24;6.65;;;4.13;;
32242;SDS011;18731;42.830;24.390;2023-03-14T14:42:52;9.65;;;4.85;;
32242;SDS011;18731;42.830;24.390;2023-03-14T14:45:19;11.70;;;7.32;;
32242;SDS011;18731;42.830;24.390;2023-03-14T14:50:26;4.60;;;2.60;;
32242;SDS011;18731;42.830;24.390;2023-03-14T14:52:56;7.00;;;3.95;;
32242;SDS011;18731;42.830;24.390;2023-03-14T14:55:28;4.70;;;2.30;;
32242;SDS011;18731;42.830;24.390;2023-03-14T14:58:11;5.72;;;3.88;;
32242;SDS011;18731;42.830;24.390;2023-03-14T15:00:48;3.30;;;2.83;;
32242;SDS011;18731;42.830;24.390;2023-03-14T15:03:29;6.57;;;3.70;;
32242;SDS011;18731;42.830;24.390;2023-03-14T15:05:57;6.47;;;3.25;;
32242;SDS011;18731;42.830;24.390;2023-03-14T15:08:24;4.00;;;2.50;;
32242;SDS011;18731;42.830;24.390;2023-03-14T15:10:51;11.98;;;4.65;;
32242;SDS011;18731;42.830;24.390;2023-03-14T15:13:17;10.95;;;5.38;;
32242;SDS011;18731;42.830;24.390;2023-03-14T15:15:43;9.65;;;3.80;;
32242;SDS011;18731;42.830;24.390;2023-03-14T15:18:13;4.40;;;2.95;;
32242;SDS011;18731;42.830;24.390;2023-03-14T15:20:41;4.28;;;2.45;;
32242;SDS011;18731;42.830;24.390;2023-03-14T15:23:09;6.32;;;4.10;;
32242;SDS011;18731;42.830;24.390;2023-03-14T15:25:35;10.63;;;4.50;;
32242;SDS011;18731;42.830;24.390;2023-03-14T15:28:02;8.30;;;4.97;;
32242;SDS011;18731;42.830;24.390;2023-03-14T15:30:28;10.27;;;5.70;;
32242;SDS011;18731;42.830;24.390;2023-03-14T15:32:54;11.20;;;5.28;;
32242;SDS011;18731;42.830;24.390;2023-03-14T15:35:20;9.02;;;5.95;;
32242;SDS011;18731;42.830;24.390;2023-03-14T15:37:45;8.98;;;5.03;;
32242;SDS011;18731;42.830;24.390;2023-03-14T15:40:11;30.13;;;12.75;;
32242;SDS011;18731;42.830;24.390;2023-03-14T15:42:39;14.57;;;7.68;;
32242;SDS011;18731;42.830;24.390;2023-03-14T15:45:05;5.10;;;3.00;;
32242;SDS011;18731;42.830;24.390;2023-03-14T15:47:32;9.55;;;2.70;;
32242;SDS011;18731;42.830;24.390;2023-03-14T15:49:57;3.33;;;2.30;;
32242;SDS011;18731;42.830;24.390;2023-03-14T15:52:24;6.93;;;2.90;;
32242;SDS011;18731;42.830;24.390;2023-03-14T15:54:49;3.80;;;2.45;;
32242;SDS011;18731;42.830;24.390;2023-03-14T15:57:15;7.30;;;2.60;;
32242;SDS011;18731;42.830;24.390;2023-03-14T15:59:40;8.95;;;4.95;;
32242;SDS011;18731;42.830;24.390;2023-03-14T16:02:06;9.48;;;6.15;;
32242;SDS011;18731;42.830;24.390;2023-03-14T16:04:33;19.65;;;8.82;;
32242;SDS011;18731;42.830;24.390;2023-03-14T16:06:59;31.70;;;15.65;;
32242;SDS011;18731;42.830;24.390;2023-03-14T16:09:24;8.95;;;6.05;;
32242;SDS011;18731;42.830;24.390;2023-03-14T16:11:51;11.00;;;6.03;;
32242;SDS011;18731;42.830;24.390;2023-03-14T16:14:17;13.25;;;6.53;;
32242;SDS011;18731;42.830;24.390;2023-03-14T16:16:42;12.73;;;6.60;;
32242;SDS011;18731;42.830;24.390;2023-03-14T16:19:08;18.15;;;9.18;;
32242;SDS011;18731;42.830;24.390;2023-03-14T16:21:33;13.48;;;4.47;;
32242;SDS011;18731;42.830;24.390;2023-03-14T16:23:59;7.22;;;4.90;;
32242;SDS011;18731;42.830;24.390;2023-03-14T16:26:27;8.30;;;4.10;;
32242;SDS011;18731;42.830;24.390;2023-03-14T16:28:52;8.32;;;3.65;;
32242;SDS011;18731;42.830;24.390;2023-03-14T16:31:19;9.23;;;4.22;;
32242;SDS011;18731;42.830;24.390;2023-03-14T16:33:49;6.22;;;3.22;;
32242;SDS011;18731;42.830;24.390;2023-03-14T16:36:14;7.75;;;4.25;;
32242;SDS011;18731;42.830;24.390;2023-03-14T16:38:41;8.48;;;4.13;;
32242;SDS011;18731;42.830;24.390;2023-03-14T16:41:12;6.22;;;3.67;;
32242;SDS011;18731;42.830;24.390;2023-03-14T16:43:39;5.18;;;3.00;;
32242;SDS011;18731;42.830;24.390;2023-03-14T16:46:06;4.28;;;2.83;;
32242;SDS011;18731;42.830;24.390;2023-03-14T16:48:35;3.67;;;2.72;;
32242;SDS011;18731;42.830;24.390;2023-03-14T16:51:01;4.65;;;2.63;;
32242;SDS011;18731;42.830;24.390;2023-03-14T16:53:26;6.93;;;2.70;;
32242;SDS011;18731;42.830;24.390;2023-03-14T16:55:54;6.72;;;3.10;;
32242;SDS011;18731;42.830;24.390;2023-03-14T16:58:20;3.05;;;2.13;;
32242;SDS011;18731;42.830;24.390;2023-03-14T17:00:47;7.00;;;2.40;;
32242;SDS011;18731;42.830;24.390;2023-03-14T17:03:13;4.97;;;2.10;;
32242;SDS011;18731;42.830;24.390;2023-03-14T17:05:44;12.10;;;6.53;;
32242;SDS011;18731;42.830;24.390;2023-03-14T17:08:13;3.70;;;2.78;;
32242;SDS011;18731;42.830;24.390;2023-03-14T17:10:40;5.78;;;3.15;;
32242;SDS011;18731;42.830;24.390;2023-03-14T17:13:05;8.27;;;4.75;;
32242;SDS011;18731;42.830;24.390;2023-03-14T17:15:31;5.90;;;3.25;;
32242;SDS011;18731;42.830;24.390;2023-03-14T17:17:57;3.42;;;2.20;;
32242;SDS011;18731;42.830;24.390;2023-03-14T17:20:23;5.70;;;2.08;;
32242;SDS011;18731;42.830;24.390;2023-03-14T17:22:48;3.58;;;2.35;;
32242;SDS011;18731;42.830;24.390;2023-03-14T17:25:14;6.07;;;3.10;;
32242;SDS011;18731;42.830;24.390;2023-03-14T17:27:40;4.35;;;2.40;;
32242;SDS011;18731;42.830;24.390;2023-03-14T17:30:05;8.52;;;3.35;;
32242;SDS011;18731;42.830;24.390;2023-03-14T17:32:32;5.80;;;3.25;;
32242;SDS011;18731;42.830;24.390;2023-03-14T17:34:57;4.82;;;2.35;;
32242;SDS011;18731;42.830;24.390;2023-03-14T17:37:23;7.60;;;3.45;;
32242;SDS011;18731;42.830;24.390;2023-03-14T17:39:49;4.45;;;2.95;;
32242;SDS011;18731;42.830;24.390;2023-03-14T17:42:14;6.82;;;4.18;;
32242;SDS011;18731;42.830;24.390;2023-03-14T17:44:40;10.63;;;6.22;;
32242;SDS011;18731;42.830;24.390;2023-03-14T17:47:06;13.15;;;6.50;;
32242;SDS011;18731;42.830;24.390;2023-03-14T17:49:32;14.20;;;7.78;;
32242;SDS011;18731;42.830;24.390;2023-03-14T17:51:58;15.73;;;6.32;;
32242;SDS011;18731;42.830;24.390;2023-03-14T17:54:23;9.85;;;5.63;;
32242;SDS011;18731;42.830;24.390;2023-03-14T17:56:49;13.50;;;6.82;;
32242;SDS011;18731;42.830;24.390;2023-03-14T17:59:15;7.78;;;4.00;;
32242;SDS011;18731;42.830;24.390;2023-03-14T18:01:41;8.07;;;4.47;;
32242;SDS011;18731;42.830;24.390;2023-03-14T18:04:06;12.38;;;4.72;;
32242;SDS011;18731;42.830;24.390;2023-03-14T18:06:32;18.13;;;9.63;;
32242;SDS011;18731;42.830;24.390;2023-03-14T18:08:58;11.68;;;6.10;;
32242;SDS011;18731;42.830;24.390;2023-03-14T18:11:25;10.02;;;4.50;;
32242;SDS011;18731;42.830;24.390;2023-03-14T18:13:52;14.32;;;6.13;;
32242;SDS011;18731;42.830;24.390;2023-03-14T18:16:18;24.60;;;9.18;;
32242;SDS011;18731;42.830;24.390;2023-03-14T18:18:45;11.65;;;6.30;;
32242;SDS011;18731;42.830;24.390;2023-03-14T18:21:14;8.90;;;5.75;;
32242;SDS011;18731;42.830;24.390;2023-03-14T18:23:40;11.88;;;5.32;;
32242;SDS011;18731;42.830;24.390;2023-03-14T18:26:06;7.60;;;4.55;;
32242;SDS011;18731;42.830;24.390;2023-03-14T18:28:32;6.75;;;3.65;;
32242;SDS011;18731;42.830;24.390;2023-03-14T18:31:01;6.78;;;3.50;;
32242;SDS011;18731;42.830;24.390;2023-03-14T18:33:31;9.23;;;4.35;;
32242;SDS011;18731;42.830;24.390;2023-03-14T18:36:02;10.40;;;5.10;;
32242;SDS011;18731;42.830;24.390;2023-03-14T18:38:31;7.25;;;4.53;;
32242;SDS011;18731;42.830;24.390;2023-03-14T18:41:04;9.10;;;5.00;;
32242;SDS011;18731;42.830;24.390;2023-03-14T18:43:30;8.10;;;4.75;;
32242;SDS011;18731;42.830;24.390;2023-03-14T18:45:57;9.18;;;4.20;;
32242;SDS011;18731;42.830;24.390;2023-03-14T18:48:23;6.72;;;3.45;;
32242;SDS011;18731;42.830;24.390;2023-03-14T18:50:49;5.72;;;3.00;;
32242;SDS011;18731;42.830;24.390;2023-03-14T18:53:15;9.40;;;5.25;;
32242;SDS011;18731;42.830;24.390;2023-03-14T18:55:41;12.15;;;6.97;;
32242;SDS011;18731;42.830;24.390;2023-03-14T18:58:07;10.70;;;5.18;;
32242;SDS011;18731;42.830;24.390;2023-03-14T19:00:33;11.15;;;5.85;;
32242;SDS011;18731;42.830;24.390;2023-03-14T19:03:01;12.25;;;5.50;;
32242;SDS011;18731;42.830;24.390;2023-03-14T19:05:28;9.98;;;4.00;;
32242;SDS011;18731;42.830;24.390;2023-03-14T19:07:55;11.95;;;5.45;;
32242;SDS011;18731;42.830;24.390;2023-03-14T19:10:24;14.35;;;6.88;;
32242;SDS011;18731;42.830;24.390;2023-03-14T19:12:51;14.25;;;6.32;;
32242;SDS011;18731;42.830;24.390;2023-03-14T19:15:16;10.73;;;5.90;;
32242;SDS011;18731;42.830;24.390;2023-03-14T19:17:42;22.25;;;9.80;;
32242;SDS011;18731;42.830;24.390;2023-03-14T19:20:08;15.77;;;6.93;;
32242;SDS011;18731;42.830;24.390;2023-03-14T19:22:35;17.27;;;8.55;;
32242;SDS011;18731;42.830;24.390;2023-03-14T19:25:01;13.90;;;6.78;;
32242;SDS011;18731;42.830;24.390;2023-03-14T19:27:28;16.73;;;8.15;;
32242;SDS011;18731;42.830;24.390;2023-03-14T19:29:54;12.80;;;6.68;;
32242;SDS011;18731;42.830;24.390;2023-03-14T19:32:20;18.73;;;8.00;;
32242;SDS011;18731;42.830;24.390;2023-03-14T19:34:46;15.80;;;7.10;;
32242;SDS011;18731;42.830;24.390;2023-03-14T19:37:11;11.43;;;5.18;;
32242;SDS011;18731;42.830;24.390;2023-03-14T19:39:37;12.40;;;5.70;;
32242;SDS011;18731;42.830;24.390;2023-03-14T19:42:03;14.15;;;6.28;;
32242;SDS011;18731;42.830;24.390;2023-03-14T19:44:29;9.48;;;4.75;;
32242;SDS011;18731;42.830;24.390;2023-03-14T19:46:55;33.45;;;12.13;;
32242;SDS011;18731;42.830;24.390;2023-03-14T19:49:20;17.58;;;7.50;;
32242;SDS011;18731;42.830;24.390;2023-03-14T19:51:48;19.45;;;7.22;;
32242;SDS011;18731;42.830;24.390;2023-03-14T19:54:15;10.00;;;5.03;;